createdAt,value
2018-08-28T00:01:57.601Z,1.60
2018-08-28T00:04:26.042Z,3.00
2018-08-28T00:06:54.812Z,2.33
2018-08-28T00:09:23.249Z,2.07
2018-08-28T00:11:51.739Z,2.80
2018-08-28T00:14:20.759Z,2.17
2018-08-28T00:16:49.177Z,2.07
2018-08-28T00:19:17.643Z,1.77
2018-08-28T00:21:46.168Z,2.02
2018-08-28T00:24:14.606Z,1.50
2018-08-28T00:26:43.032Z,2.40
2018-08-28T00:29:11.743Z,2.20
2018-08-28T00:31:40.185Z,2.00
2018-08-28T00:34:08.608Z,1.70
2018-08-28T00:36:37.184Z,2.92
2018-08-28T00:39:06.395Z,1.67
2018-08-28T00:41:34.876Z,3.00
2018-08-28T00:44:03.311Z,2.30
2018-08-28T00:46:32.242Z,3.03
2018-08-28T00:49:00.695Z,2.20
2018-08-28T00:51:29.116Z,2.23
2018-08-28T00:53:57.699Z,2.23
2018-08-28T00:56:26.232Z,2.10
2018-08-28T00:58:54.675Z,1.80
2018-08-28T01:01:23.331Z,2.20
2018-08-28T01:03:51.743Z,1.87
2018-08-28T01:06:20.258Z,1.77
2018-08-28T01:08:48.777Z,1.77
2018-08-28T01:11:17.262Z,2.10
2018-08-28T01:17:16.803Z,2.00
2018-08-28T01:19:45.247Z,2.30
2018-08-28T01:22:13.647Z,2.33
2018-08-28T01:24:42.054Z,2.10
2018-08-28T01:27:10.587Z,2.30
2018-08-28T01:29:39.247Z,2.33
2018-08-28T01:32:07.711Z,2.00
2018-08-28T01:34:36.198Z,2.40
2018-08-28T01:37:04.648Z,2.53
2018-08-28T01:39:33.246Z,2.50
2018-08-28T01:42:01.727Z,2.10
2018-08-28T01:44:30.133Z,1.77
2018-08-28T01:46:58.690Z,1.83
2018-08-28T01:49:27.141Z,2.07
2018-08-28T01:51:55.556Z,2.40
2018-08-28T01:54:23.997Z,2.30
2018-08-28T01:56:52.457Z,2.43
2018-08-28T01:59:20.888Z,2.60
2018-08-28T02:01:49.292Z,1.90
2018-08-28T02:04:17.745Z,2.30
2018-08-28T02:06:46.224Z,2.27
2018-08-28T02:09:14.671Z,1.87
2018-08-28T02:11:43.091Z,1.70
2018-08-28T02:14:11.556Z,1.72
2018-08-28T02:16:40.067Z,2.27
2018-08-28T02:19:08.563Z,2.13
2018-08-28T02:21:37.579Z,2.08
2018-08-28T02:24:06.318Z,2.17
2018-08-28T02:26:34.957Z,2.33
2018-08-28T02:29:03.645Z,1.90
2018-08-28T02:31:32.144Z,2.60
2018-08-28T02:34:00.828Z,2.47
2018-08-28T02:36:29.246Z,1.60
2018-08-28T02:38:57.684Z,1.67
2018-08-28T02:41:26.098Z,2.30
2018-08-28T02:43:54.547Z,2.00
2018-08-28T02:46:22.978Z,2.60
2018-08-28T02:48:51.729Z,2.67
2018-08-28T02:51:20.192Z,2.27
2018-08-28T02:53:48.610Z,1.90
2018-08-28T02:56:17.103Z,2.37
2018-08-28T02:58:45.546Z,2.07
2018-08-28T03:01:13.982Z,2.63
2018-08-28T03:03:43.018Z,2.83
2018-08-28T03:06:11.460Z,2.03
2018-08-28T03:08:39.897Z,2.30
2018-08-28T03:11:08.310Z,2.10
2018-08-28T03:13:36.718Z,1.90
2018-08-28T03:16:05.205Z,2.00
2018-08-28T03:18:33.813Z,2.00
2018-08-28T03:21:02.291Z,2.17
2018-08-28T03:23:30.760Z,2.40
2018-08-28T03:25:59.187Z,1.63
2018-08-28T03:28:27.630Z,1.83
2018-08-28T03:30:56.053Z,2.60
2018-08-28T03:33:24.528Z,1.97
2018-08-28T03:35:53.444Z,2.27
2018-08-28T03:38:22.413Z,2.10
2018-08-28T03:40:50.842Z,1.95
2018-08-28T03:43:19.808Z,3.37
2018-08-28T03:45:48.704Z,3.10
2018-08-28T03:48:17.158Z,2.70
2018-08-28T03:50:45.655Z,3.03
2018-08-28T03:53:14.086Z,2.67
2018-08-28T03:55:42.508Z,2.97
2018-08-28T03:58:11.020Z,2.00
2018-08-28T04:00:39.465Z,2.20
2018-08-28T04:03:07.906Z,2.00
2018-08-28T04:05:36.352Z,2.05
2018-08-28T04:08:06.022Z,2.98
2018-08-28T04:10:34.480Z,1.80
2018-08-28T04:13:02.931Z,1.80
2018-08-28T04:15:31.352Z,2.17
2018-08-28T04:17:59.785Z,2.73
2018-08-28T04:20:28.380Z,2.77
2018-08-28T04:22:56.823Z,2.20
2018-08-28T04:25:25.592Z,1.97
2018-08-28T04:27:54.111Z,3.27
2018-08-28T04:30:22.803Z,2.10
2018-08-28T04:32:51.259Z,1.70
2018-08-28T04:35:19.691Z,2.20
2018-08-28T04:37:48.300Z,2.20
2018-08-28T04:40:16.772Z,2.53
2018-08-28T04:42:45.177Z,2.50
2018-08-28T04:45:13.589Z,2.15
2018-08-28T04:47:41.993Z,2.63
2018-08-28T04:50:10.664Z,2.55
2018-08-28T04:52:39.069Z,3.20
2018-08-28T04:55:07.498Z,3.35
2018-08-28T04:57:36.202Z,2.63
2018-08-28T05:00:05.244Z,2.03
2018-08-28T05:02:35.462Z,2.80
2018-08-28T05:05:06.130Z,2.67
2018-08-28T05:07:34.928Z,1.73
2018-08-28T05:10:04.253Z,2.33
2018-08-28T05:12:32.691Z,2.30
2018-08-28T05:15:01.102Z,2.00
2018-08-28T05:17:29.511Z,2.20
2018-08-28T05:19:57.955Z,2.30
2018-08-28T05:22:26.467Z,2.30
2018-08-28T05:24:54.906Z,2.07
2018-08-28T05:27:23.365Z,2.30
2018-08-28T05:29:51.771Z,2.00
2018-08-28T05:32:20.196Z,2.30
2018-08-28T05:34:48.655Z,3.27
2018-08-28T05:37:17.063Z,1.93
2018-08-28T05:39:45.724Z,2.13
2018-08-28T05:42:14.165Z,2.87
2018-08-28T05:44:42.677Z,3.50
2018-08-28T05:47:11.093Z,3.23
2018-08-28T05:49:39.671Z,2.40
2018-08-28T05:52:08.055Z,2.50
2018-08-28T05:54:36.706Z,2.90
2018-08-28T05:57:05.175Z,9.50
2018-08-28T05:59:33.642Z,3.53
2018-08-28T06:02:02.124Z,2.20
2018-08-28T06:04:30.823Z,2.73
2018-08-28T06:06:59.299Z,3.40
2018-08-28T06:09:27.748Z,1.90
2018-08-28T06:11:56.169Z,2.70
2018-08-28T06:14:24.631Z,2.97
2018-08-28T06:16:53.055Z,3.10
2018-08-28T06:19:21.466Z,2.60
2018-08-28T06:21:49.935Z,3.63
2018-08-28T06:24:18.373Z,5.90
2018-08-28T06:26:46.799Z,5.00
2018-08-28T06:29:15.215Z,6.53
2018-08-28T06:31:43.639Z,3.50
2018-08-28T06:34:12.076Z,3.17
2018-08-28T06:36:40.503Z,4.27
2018-08-28T06:39:09.718Z,3.27
2018-08-28T06:41:38.419Z,4.50
2018-08-28T06:44:07.575Z,3.33
2018-08-28T06:46:36.014Z,3.10
2018-08-28T06:49:04.776Z,3.60
2018-08-28T06:51:33.312Z,3.50
2018-08-28T06:54:01.722Z,2.80
2018-08-28T06:56:30.707Z,2.50
2018-08-28T06:58:59.140Z,2.73
2018-08-28T07:01:27.559Z,3.10
2018-08-28T07:03:56.088Z,2.70
2018-08-28T07:06:24.464Z,3.03
2018-08-28T07:08:52.899Z,2.67
2018-08-28T07:11:21.354Z,2.33
2018-08-28T07:13:50.124Z,3.13
2018-08-28T07:16:18.529Z,2.30
2018-08-28T07:18:47.155Z,3.10
2018-08-28T07:21:15.609Z,2.60
2018-08-28T07:23:44.015Z,2.63
2018-08-28T07:26:12.653Z,2.70
2018-08-28T07:28:41.150Z,2.13
2018-08-28T07:31:09.595Z,2.40
2018-08-28T07:33:38.052Z,3.00
2018-08-28T07:36:06.457Z,2.80
2018-08-28T07:38:34.891Z,2.07
2018-08-28T07:41:03.320Z,2.13
2018-08-28T07:43:31.964Z,2.50
2018-08-28T07:46:00.436Z,2.95
2018-08-28T07:48:28.927Z,2.20
2018-08-28T07:50:57.410Z,2.77
2018-08-28T07:53:25.851Z,2.43
2018-08-28T07:55:54.309Z,2.03
2018-08-28T07:58:22.777Z,2.30
2018-08-28T08:00:51.183Z,2.53
2018-08-28T08:03:23.237Z,2.07
2018-08-28T08:05:53.001Z,2.47
2018-08-28T08:08:21.871Z,2.70
2018-08-28T08:10:50.320Z,3.02
2018-08-28T08:13:18.767Z,2.50
2018-08-28T08:15:47.672Z,2.50
2018-08-28T08:18:16.291Z,2.10
2018-08-28T08:20:44.757Z,2.77
2018-08-28T08:23:13.207Z,2.00
2018-08-28T08:25:42.226Z,2.80
2018-08-28T08:28:11.242Z,3.13
2018-08-28T08:30:39.854Z,2.23
2018-08-28T08:33:08.609Z,2.10
2018-08-28T08:35:37.016Z,2.10
2018-08-28T08:38:06.343Z,2.70
2018-08-28T08:40:35.109Z,2.40
2018-08-28T08:43:03.549Z,2.43
2018-08-28T08:45:31.975Z,2.37
2018-08-28T08:48:00.380Z,2.50
2018-08-28T08:50:29.120Z,2.27
2018-08-28T08:52:57.854Z,2.40
2018-08-28T08:55:26.414Z,2.70
2018-08-28T08:57:55.075Z,2.72
2018-08-28T09:00:23.500Z,3.30
2018-08-28T09:02:52.088Z,1.73
2018-08-28T09:05:20.489Z,2.53
2018-08-28T09:07:49.681Z,2.03
2018-08-28T09:10:18.251Z,2.13
2018-08-28T09:12:46.709Z,2.55
2018-08-28T09:15:15.292Z,2.37
2018-08-28T09:17:43.747Z,3.63
2018-08-28T09:20:12.203Z,3.73
2018-08-28T09:22:40.849Z,4.00
2018-08-28T09:25:09.443Z,2.52
2018-08-28T09:27:37.906Z,3.75
2018-08-28T09:30:06.883Z,2.90
2018-08-28T09:32:35.321Z,2.60
2018-08-28T09:35:03.787Z,2.87
2018-08-28T09:37:32.242Z,2.33
2018-08-28T09:40:00.911Z,2.03
2018-08-28T09:42:29.344Z,1.87
2018-08-28T09:44:57.787Z,2.40
2018-08-28T09:47:26.423Z,3.05
2018-08-28T09:49:54.862Z,2.77
2018-08-28T09:52:23.258Z,2.90
2018-08-28T09:54:52.075Z,3.27
2018-08-28T09:57:20.544Z,2.70
2018-08-28T09:59:49.013Z,2.12
2018-08-28T10:02:17.447Z,2.50
2018-08-28T10:04:45.956Z,1.90
2018-08-28T10:07:14.368Z,2.27
2018-08-28T10:09:43.039Z,2.17
2018-08-28T10:12:11.497Z,1.60
2018-08-28T10:14:39.952Z,2.40
2018-08-28T10:17:08.412Z,2.80
2018-08-28T10:19:37.277Z,2.50
2018-08-28T10:22:05.696Z,2.73
2018-08-28T10:24:34.107Z,2.70
2018-08-28T10:27:02.514Z,2.53
2018-08-28T10:29:31.032Z,3.17
2018-08-28T10:31:59.759Z,3.17
2018-08-28T10:34:28.172Z,3.10
2018-08-28T10:36:56.621Z,2.37
2018-08-28T10:39:39.282Z,2.60
2018-08-28T10:42:08.160Z,2.73
2018-08-28T10:44:36.629Z,2.73
2018-08-28T10:47:05.152Z,2.47
2018-08-28T10:49:33.603Z,2.40
2018-08-28T10:52:02.100Z,3.53
2018-08-28T10:54:30.834Z,2.97
2018-08-28T10:56:59.235Z,2.57
2018-08-28T10:59:27.651Z,2.93
2018-08-28T11:01:56.082Z,2.20
2018-08-28T11:04:24.512Z,3.20
2018-08-28T11:06:52.960Z,2.42
2018-08-28T11:09:21.382Z,3.07
2018-08-28T11:11:49.824Z,2.90
2018-08-28T11:14:18.228Z,2.90
2018-08-28T11:16:46.627Z,3.20
2018-08-28T11:19:15.245Z,2.63
2018-08-28T11:21:43.686Z,3.27
2018-08-28T11:24:12.141Z,4.47
2018-08-28T11:26:40.573Z,2.90
2018-08-28T11:29:09.015Z,2.70
2018-08-28T11:31:37.433Z,2.33
2018-08-28T11:34:06.279Z,2.70
2018-08-28T11:36:34.731Z,3.47
2018-08-28T11:39:03.420Z,2.67
2018-08-28T11:41:31.867Z,2.90
2018-08-28T11:44:00.307Z,2.97
2018-08-28T11:46:28.695Z,2.20
2018-08-28T11:48:57.119Z,3.27
2018-08-28T11:51:25.564Z,3.10
2018-08-28T11:53:53.995Z,2.37
2018-08-28T11:56:22.589Z,2.83
2018-08-28T11:58:51.040Z,2.67
2018-08-28T12:01:19.475Z,2.97
2018-08-28T12:03:47.979Z,2.90
2018-08-28T12:06:16.405Z,2.10
2018-08-28T12:08:44.972Z,2.73
2018-08-28T12:11:13.462Z,3.50
2018-08-28T12:13:42.051Z,2.90
2018-08-28T12:16:10.792Z,3.00
2018-08-28T12:18:39.222Z,3.20
2018-08-28T12:21:07.736Z,2.90
2018-08-28T12:23:36.181Z,3.23
2018-08-28T12:26:04.596Z,2.62
2018-08-28T12:28:33.326Z,3.10
2018-08-28T12:31:01.749Z,3.27
2018-08-28T12:33:30.131Z,3.23
2018-08-28T12:35:58.529Z,3.37
2018-08-28T12:38:26.959Z,3.70
2018-08-28T12:40:55.426Z,3.00
2018-08-28T12:43:23.902Z,3.47
2018-08-28T12:45:52.331Z,3.70
2018-08-28T12:48:20.741Z,3.70
2018-08-28T12:50:49.407Z,3.30
2018-08-28T12:53:18.319Z,3.87
2018-08-28T12:55:46.741Z,3.30
2018-08-28T12:58:15.408Z,3.70
2018-08-28T13:00:43.959Z,3.00
2018-08-28T13:03:12.365Z,3.45
2018-08-28T13:05:40.804Z,3.47
2018-08-28T13:08:09.207Z,3.80
2018-08-28T13:10:37.650Z,3.55
2018-08-28T13:13:06.176Z,3.33
2018-08-28T13:15:34.649Z,3.33
2018-08-28T13:18:03.093Z,3.30
2018-08-28T13:20:31.477Z,3.80
2018-08-28T13:22:59.952Z,3.50
2018-08-28T13:25:28.753Z,2.90
2018-08-28T13:27:57.039Z,3.37
2018-08-28T13:30:25.517Z,3.67
2018-08-28T13:32:53.943Z,3.73
2018-08-28T13:35:22.461Z,4.00
2018-08-28T13:37:50.884Z,3.67
2018-08-28T13:40:19.343Z,3.55
2018-08-28T13:42:47.853Z,4.67
2018-08-28T13:45:16.315Z,3.25
2018-08-28T13:47:44.763Z,4.13
2018-08-28T13:50:13.185Z,3.50
2018-08-28T13:52:41.598Z,3.63
2018-08-28T13:55:10.084Z,3.40
2018-08-28T13:57:38.736Z,3.90
2018-08-28T14:00:07.267Z,3.83
2018-08-28T14:02:35.606Z,3.90
2018-08-28T14:05:04.908Z,3.15
2018-08-28T14:07:33.517Z,3.80
2018-08-28T14:10:02.072Z,3.90
2018-08-28T14:12:30.539Z,3.77
2018-08-28T14:14:58.991Z,4.27
2018-08-28T14:18:29.935Z,3.70
2018-08-28T14:20:58.353Z,3.77
2018-08-28T14:23:26.860Z,3.80
2018-08-28T14:25:55.375Z,4.17
2018-08-28T14:28:23.852Z,4.50
2018-08-28T14:30:52.500Z,3.90
2018-08-28T14:33:20.948Z,4.40
2018-08-28T14:35:49.922Z,4.30
2018-08-28T14:38:18.291Z,4.00
2018-08-28T14:40:46.822Z,4.47
2018-08-28T14:43:15.217Z,3.67
2018-08-28T14:45:43.711Z,4.23
2018-08-28T14:48:12.188Z,3.13
2018-08-28T14:50:40.599Z,4.37
2018-08-28T14:53:09.132Z,4.30
2018-08-28T14:55:37.579Z,3.77
2018-08-28T14:58:05.987Z,4.10
2018-08-28T15:00:34.540Z,3.00
2018-08-28T15:03:02.964Z,3.53
2018-08-28T15:05:31.683Z,4.30
2018-08-28T15:08:00.440Z,3.57
2018-08-28T15:10:29.097Z,3.27
2018-08-28T15:12:57.778Z,3.83
2018-08-28T15:15:26.187Z,3.55
2018-08-28T15:17:54.631Z,4.00
2018-08-28T15:20:23.345Z,3.90
2018-08-28T15:22:51.791Z,3.50
2018-08-28T15:25:20.253Z,4.95
2018-08-28T15:27:48.680Z,4.17
2018-08-28T15:30:17.090Z,3.50
2018-08-28T15:32:45.544Z,4.60
2018-08-28T15:35:13.986Z,4.10
2018-08-28T15:37:42.538Z,4.23
2018-08-28T15:40:10.970Z,4.10
2018-08-28T15:42:39.379Z,3.77
2018-08-28T15:45:08.112Z,3.20
2018-08-28T15:47:36.523Z,4.60
2018-08-28T15:50:05.020Z,3.60
2018-08-28T15:52:33.472Z,4.07
2018-08-28T15:55:01.899Z,3.10
2018-08-28T15:57:30.660Z,4.05
2018-08-28T15:59:59.152Z,4.37
2018-08-28T16:02:27.744Z,3.87
2018-08-28T16:04:56.227Z,3.40
2018-08-28T16:07:24.642Z,3.98
2018-08-28T16:09:53.551Z,3.50
2018-08-28T16:12:21.980Z,3.53
2018-08-28T16:14:50.710Z,3.20
2018-08-28T16:17:19.165Z,3.70
2018-08-28T16:19:47.584Z,3.53
2018-08-28T16:22:20.056Z,3.30
2018-08-28T16:24:48.453Z,5.07
2018-08-28T16:27:17.075Z,3.70
2018-08-28T16:29:45.578Z,4.27
2018-08-28T16:32:13.940Z,3.70
2018-08-28T16:34:42.375Z,3.90
2018-08-28T16:37:11.379Z,4.30
2018-08-28T16:39:39.954Z,3.45
2018-08-28T16:42:08.377Z,3.90
2018-08-28T16:44:36.848Z,3.50
2018-08-28T16:47:05.325Z,4.40
2018-08-28T16:49:33.789Z,3.83
2018-08-28T16:52:02.528Z,3.87
2018-08-28T16:54:31.263Z,3.83
2018-08-28T16:56:59.948Z,3.60
2018-08-28T16:59:28.617Z,3.40
2018-08-28T17:01:57.136Z,3.43
2018-08-28T17:04:26.556Z,3.55
2018-08-28T17:06:55.022Z,3.00
2018-08-28T17:09:23.878Z,4.33
2018-08-28T17:11:52.365Z,3.80
2018-08-28T17:14:20.828Z,4.33
2018-08-28T17:16:49.726Z,3.73
2018-08-28T17:19:18.187Z,3.80
2018-08-28T17:21:46.799Z,4.10
2018-08-28T17:24:15.443Z,3.57
2018-08-28T17:26:44.391Z,4.07
2018-08-28T17:29:12.772Z,3.70
2018-08-28T17:31:41.233Z,3.93
2018-08-28T17:34:09.692Z,5.50
2018-08-28T17:36:38.068Z,4.58
2018-08-28T17:39:07.821Z,5.37
2018-08-28T17:41:36.236Z,3.90
2018-08-28T17:44:04.755Z,4.20
2018-08-28T17:46:33.253Z,5.28
2018-08-28T17:49:01.906Z,4.43
2018-08-28T17:51:30.964Z,5.30
2018-08-28T17:53:59.429Z,4.43
2018-08-28T17:56:27.885Z,4.80
2018-08-28T17:58:56.363Z,5.37
2018-08-28T18:01:24.868Z,4.23
2018-08-28T18:03:53.305Z,3.70
2018-08-28T18:06:28.369Z,4.87
2018-08-28T18:08:56.828Z,4.93
2018-08-28T18:11:25.251Z,5.37
2018-08-28T18:13:53.745Z,5.37
2018-08-28T18:16:22.295Z,5.90
2018-08-28T18:18:50.875Z,4.87
2018-08-28T18:21:19.320Z,4.53
2018-08-28T18:23:47.734Z,4.90
2018-08-28T18:26:16.241Z,5.17
2018-08-28T18:28:44.736Z,3.90
2018-08-28T18:31:13.172Z,3.62
2018-08-28T18:33:41.704Z,4.57
2018-08-28T18:36:10.312Z,4.93
2018-08-28T18:38:38.744Z,4.63
2018-08-28T18:41:07.395Z,5.40
2018-08-28T18:43:35.690Z,4.80
2018-08-28T18:46:04.107Z,4.70
2018-08-28T18:48:32.632Z,4.30
2018-08-28T18:51:01.092Z,4.60
2018-08-28T18:53:29.545Z,5.65
2018-08-28T18:55:58.215Z,6.30
2018-08-28T18:58:26.635Z,5.20
2018-08-28T19:00:55.287Z,5.00
2018-08-28T19:03:23.783Z,5.12
2018-08-28T19:05:52.230Z,3.95
2018-08-28T19:08:20.698Z,5.60
2018-08-28T19:10:50.446Z,5.37
2018-08-28T19:13:18.852Z,4.93
2018-08-28T19:15:47.343Z,4.25
2018-08-28T19:18:15.806Z,4.50
2018-08-28T19:20:44.257Z,3.90
2018-08-28T19:23:12.657Z,5.17
2018-08-28T19:25:41.095Z,4.00
2018-08-28T19:28:09.804Z,4.70
2018-08-28T19:30:38.189Z,5.00
2018-08-28T19:33:06.728Z,4.03
2018-08-28T19:35:35.144Z,5.30
2018-08-28T19:38:03.532Z,4.23
2018-08-28T19:40:38.721Z,4.90
2018-08-28T19:43:07.194Z,4.97
2018-08-28T19:45:35.717Z,4.13
2018-08-28T19:48:04.183Z,4.60
2018-08-28T19:50:34.380Z,5.17
2018-08-28T19:53:02.900Z,5.53
2018-08-28T19:55:31.396Z,5.35
2018-08-28T19:58:00.066Z,5.08
2018-08-28T20:00:28.547Z,5.80
2018-08-28T20:02:57.172Z,5.60
2018-08-28T20:05:25.656Z,5.30
2018-08-28T20:07:54.230Z,4.42
2018-08-28T20:10:22.659Z,5.90
2018-08-28T20:12:51.051Z,4.30
2018-08-28T20:15:19.473Z,4.57
2018-08-28T20:17:47.932Z,5.70
2018-08-28T20:20:16.357Z,4.97
2018-08-28T20:22:44.813Z,5.23
2018-08-28T20:25:13.244Z,4.57
2018-08-28T20:27:41.728Z,5.00
2018-08-28T20:30:10.512Z,5.17
2018-08-28T20:32:39.099Z,5.70
2018-08-28T20:35:07.866Z,5.00
2018-08-28T20:37:36.589Z,4.70
2018-08-28T20:41:08.291Z,5.10
2018-08-28T20:43:37.107Z,4.77
2018-08-28T20:46:05.602Z,6.20
2018-08-28T20:48:34.028Z,7.90
2018-08-28T20:51:02.753Z,14.85
2018-08-28T20:53:31.266Z,10.20
2018-08-28T20:55:59.663Z,5.87
2018-08-28T20:58:29.060Z,5.37
2018-08-28T21:00:57.533Z,4.53
2018-08-28T21:03:26.003Z,5.28
2018-08-28T21:05:55.001Z,5.10
2018-08-28T21:08:23.521Z,5.63
2018-08-28T21:10:51.955Z,4.50
2018-08-28T21:13:20.372Z,4.80
2018-08-28T21:15:48.795Z,4.97
2018-08-28T21:18:17.587Z,5.03
2018-08-28T21:20:46.016Z,4.97
2018-08-28T21:23:14.417Z,4.27
2018-08-28T21:25:42.870Z,4.43
2018-08-28T21:28:11.304Z,4.57
2018-08-28T21:30:40.108Z,4.37
2018-08-28T21:33:08.542Z,4.50
2018-08-28T21:35:36.957Z,4.65
2018-08-28T21:38:05.741Z,5.50
2018-08-28T21:40:34.112Z,4.30
2018-08-28T21:43:02.544Z,4.43
2018-08-28T21:45:31.335Z,4.37
2018-08-28T21:47:59.739Z,5.17
2018-08-28T21:50:28.201Z,4.60
2018-08-28T21:52:56.788Z,5.30
2018-08-28T21:55:25.243Z,4.40
2018-08-28T21:57:53.915Z,4.53
2018-08-28T22:00:22.658Z,4.50
2018-08-28T22:02:51.117Z,5.10
2018-08-28T22:05:23.880Z,4.90
2018-08-28T22:07:56.440Z,4.50
2018-08-28T22:10:24.946Z,4.37
2018-08-28T22:12:53.396Z,5.40
2018-08-28T22:15:21.861Z,5.17
2018-08-28T22:17:50.260Z,6.23
2018-08-28T22:20:18.695Z,4.27
2018-08-28T22:22:47.421Z,4.67
2018-08-28T22:26:18.990Z,4.47
2018-08-28T22:28:47.405Z,5.07
2018-08-28T22:31:15.840Z,4.53
2018-08-28T22:33:44.239Z,5.83
2018-08-28T22:36:12.667Z,5.63
2018-08-28T22:38:41.099Z,5.57
2018-08-28T22:41:09.699Z,4.60
2018-08-28T22:43:38.136Z,5.28
2018-08-28T22:46:06.947Z,4.87
2018-08-28T22:48:35.361Z,4.50
2018-08-28T22:51:03.772Z,4.60
2018-08-28T22:53:32.152Z,4.70
2018-08-28T22:56:00.820Z,5.87
2018-08-28T22:58:29.251Z,4.37
2018-08-28T23:00:57.693Z,4.43
2018-08-28T23:03:26.235Z,4.43
2018-08-28T23:05:54.688Z,5.33
2018-08-28T23:08:23.341Z,4.53
2018-08-28T23:10:51.772Z,4.90
2018-08-28T23:13:20.167Z,4.87
2018-08-28T23:15:48.584Z,5.43
2018-08-28T23:18:17.005Z,4.90
2018-08-28T23:20:45.450Z,4.70
2018-08-28T23:23:13.905Z,4.80
2018-08-28T23:25:42.595Z,4.27
2018-08-28T23:28:11.838Z,4.25
2018-08-28T23:30:40.262Z,4.50
2018-08-28T23:33:08.719Z,5.17
2018-08-28T23:35:37.146Z,4.97
2018-08-28T23:40:40.724Z,4.23
2018-08-28T23:43:09.184Z,4.80
2018-08-28T23:45:37.624Z,3.97
2018-08-28T23:48:06.067Z,4.60
2018-08-28T23:50:34.654Z,4.40
2018-08-28T23:53:03.366Z,4.50
2018-08-28T23:55:31.793Z,5.78
2018-08-28T23:58:00.218Z,3.63
